Terminal Aerodrome Forecast
Issued by NWS

Home | Current Version | Previous Version | Text Only | Print | Product List | Glossary On
Versions: 1 2 3 4 5 6 7 8 9 10 11 12 13 14 15
441
FTUS41 KBTV 240403 AAA
TAFMPV
TAF AMD
KMPV 240403Z 2404/2424 18006KT P6SM SCT040
      TEMPO 2404/2408 2SM RA BR OVC025
     FM240800 21004KT 1SM BR VCSH OVC003
     FM241200 29004KT P6SM VCSH BKN015
     FM241300 30006KT P6SM BKN025
     FM241400 31008G14KT P6SM BKN050=

USA.gov is the U.S. government's official web portal to all federal, state and local government web resources and services.